sensor_id;sensor_type;location;lat;lon;timestamp;P1;durP1;ratioP1;P2;durP2;ratioP2
71707;SDS011;59556;37.994;-122.332;2022-07-29T00:01:13;1.27;;;1.08;;
71707;SDS011;59556;37.994;-122.332;2022-07-29T00:03:40;2.85;;;1.13;;
71707;SDS011;59556;37.994;-122.332;2022-07-29T00:06:07;3.22;;;1.17;;
71707;SDS011;59556;37.994;-122.332;2022-07-29T00:08:33;4.13;;;1.20;;
71707;SDS011;59556;37.994;-122.332;2022-07-29T00:10:59;3.15;;;1.30;;
71707;SDS011;59556;37.994;-122.332;2022-07-29T00:13:25;2.47;;;1.40;;
71707;SDS011;59556;37.994;-122.332;2022-07-29T00:15:52;3.85;;;1.50;;
71707;SDS011;59556;37.994;-122.332;2022-07-29T00:18:18;4.05;;;1.45;;
71707;SDS011;59556;37.994;-122.332;2022-07-29T00:20:44;1.80;;;1.30;;
71707;SDS011;59556;37.994;-122.332;2022-07-29T00:23:10;3.05;;;1.25;;
71707;SDS011;59556;37.994;-122.332;2022-07-29T00:25:36;4.65;;;1.55;;
71707;SDS011;59556;37.994;-122.332;2022-07-29T00:28:03;3.65;;;1.70;;
71707;SDS011;59556;37.994;-122.332;2022-07-29T00:30:29;3.03;;;1.77;;
71707;SDS011;59556;37.994;-122.332;2022-07-29T00:32:55;2.45;;;1.40;;
71707;SDS011;59556;37.994;-122.332;2022-07-29T00:35:21;3.20;;;1.80;;
71707;SDS011;59556;37.994;-122.332;2022-07-29T00:38:05;4.28;;;2.00;;
71707;SDS011;59556;37.994;-122.332;2022-07-29T00:40:32;4.65;;;1.90;;
71707;SDS011;59556;37.994;-122.332;2022-07-29T00:42:58;3.10;;;1.90;;
71707;SDS011;59556;37.994;-122.332;2022-07-29T00:45:24;4.32;;;1.63;;
71707;SDS011;59556;37.994;-122.332;2022-07-29T00:47:51;3.53;;;1.65;;
71707;SDS011;59556;37.994;-122.332;2022-07-29T00:50:17;2.63;;;1.45;;
71707;SDS011;59556;37.994;-122.332;2022-07-29T00:52:43;3.03;;;1.70;;
71707;SDS011;59556;37.994;-122.332;2022-07-29T00:55:11;4.63;;;2.05;;
71707;SDS011;59556;37.994;-122.332;2022-07-29T00:57:41;2.63;;;1.50;;
71707;SDS011;59556;37.994;-122.332;2022-07-29T01:00:10;3.85;;;1.77;;
71707;SDS011;59556;37.994;-122.332;2022-07-29T01:02:37;2.83;;;1.40;;
71707;SDS011;59556;37.994;-122.332;2022-07-29T01:05:04;4.18;;;1.50;;
71707;SDS011;59556;37.994;-122.332;2022-07-29T01:07:34;2.80;;;1.30;;
71707;SDS011;59556;37.994;-122.332;2022-07-29T01:10:01;5.55;;;1.65;;
71707;SDS011;59556;37.994;-122.332;2022-07-29T01:12:29;3.28;;;1.70;;
71707;SDS011;59556;37.994;-122.332;2022-07-29T01:14:59;4.38;;;1.55;;
71707;SDS011;59556;37.994;-122.332;2022-07-29T01:17:28;2.15;;;1.20;;
71707;SDS011;59556;37.994;-122.332;2022-07-29T01:28:19;3.17;;;1.40;;
71707;SDS011;59556;37.994;-122.332;2022-07-29T01:31:04;3.92;;;1.52;;
71707;SDS011;59556;37.994;-122.332;2022-07-29T01:33:31;2.17;;;1.10;;
71707;SDS011;59556;37.994;-122.332;2022-07-29T01:36:22;3.25;;;1.10;;
71707;SDS011;59556;37.994;-122.332;2022-07-29T01:38:54;4.43;;;2.00;;
71707;SDS011;59556;37.994;-122.332;2022-07-29T01:41:55;3.10;;;1.50;;
71707;SDS011;59556;37.994;-122.332;2022-07-29T01:44:33;2.47;;;1.08;;
71707;SDS011;59556;37.994;-122.332;2022-07-29T01:47:10;4.57;;;1.10;;
71707;SDS011;59556;37.994;-122.332;2022-07-29T01:49:39;3.53;;;1.30;;
71707;SDS011;59556;37.994;-122.332;2022-07-29T01:52:11;5.22;;;2.05;;
71707;SDS011;59556;37.994;-122.332;2022-07-29T01:54:42;5.05;;;1.80;;
71707;SDS011;59556;37.994;-122.332;2022-07-29T01:57:14;4.78;;;1.33;;
71707;SDS011;59556;37.994;-122.332;2022-07-29T01:59:42;3.75;;;1.30;;
71707;SDS011;59556;37.994;-122.332;2022-07-29T02:02:09;6.18;;;1.83;;
71707;SDS011;59556;37.994;-122.332;2022-07-29T02:04:37;2.85;;;1.48;;
71707;SDS011;59556;37.994;-122.332;2022-07-29T02:07:05;4.85;;;1.52;;
71707;SDS011;59556;37.994;-122.332;2022-07-29T02:09:33;5.65;;;1.38;;
71707;SDS011;59556;37.994;-122.332;2022-07-29T02:12:02;4.18;;;1.52;;
71707;SDS011;59556;37.994;-122.332;2022-07-29T02:14:31;4.68;;;1.42;;
71707;SDS011;59556;37.994;-122.332;2022-07-29T02:17:00;2.63;;;1.30;;
71707;SDS011;59556;37.994;-122.332;2022-07-29T02:19:28;4.78;;;1.50;;
71707;SDS011;59556;37.994;-122.332;2022-07-29T02:21:55;4.28;;;1.85;;
71707;SDS011;59556;37.994;-122.332;2022-07-29T02:24:22;3.72;;;1.88;;
71707;SDS011;59556;37.994;-122.332;2022-07-29T02:26:49;4.28;;;1.50;;
71707;SDS011;59556;37.994;-122.332;2022-07-29T02:29:15;6.70;;;1.48;;
71707;SDS011;59556;37.994;-122.332;2022-07-29T02:31:42;3.00;;;1.48;;
71707;SDS011;59556;37.994;-122.332;2022-07-29T02:34:12;4.35;;;1.40;;
71707;SDS011;59556;37.994;-122.332;2022-07-29T02:36:38;4.45;;;1.40;;
71707;SDS011;59556;37.994;-122.332;2022-07-29T02:39:05;4.63;;;1.67;;
71707;SDS011;59556;37.994;-122.332;2022-07-29T02:41:35;2.60;;;1.27;;
71707;SDS011;59556;37.994;-122.332;2022-07-29T02:44:10;3.25;;;1.30;;
71707;SDS011;59556;37.994;-122.332;2022-07-29T02:46:51;2.28;;;1.40;;
71707;SDS011;59556;37.994;-122.332;2022-07-29T02:52:27;3.38;;;1.20;;
71707;SDS011;59556;37.994;-122.332;2022-07-29T02:55:10;4.47;;;2.00;;
71707;SDS011;59556;37.994;-122.332;2022-07-29T02:57:59;2.97;;;1.58;;
71707;SDS011;59556;37.994;-122.332;2022-07-29T03:00:28;3.17;;;1.33;;
71707;SDS011;59556;37.994;-122.332;2022-07-29T03:02:56;2.80;;;1.60;;
71707;SDS011;59556;37.994;-122.332;2022-07-29T03:05:24;3.55;;;1.50;;
71707;SDS011;59556;37.994;-122.332;2022-07-29T03:07:53;3.85;;;1.50;;
71707;SDS011;59556;37.994;-122.332;2022-07-29T03:10:21;2.15;;;1.15;;
71707;SDS011;59556;37.994;-122.332;2022-07-29T03:12:48;3.60;;;1.42;;
71707;SDS011;59556;37.994;-122.332;2022-07-29T03:15:14;3.63;;;1.58;;
71707;SDS011;59556;37.994;-122.332;2022-07-29T03:17:40;1.75;;;1.27;;
71707;SDS011;59556;37.994;-122.332;2022-07-29T03:20:07;2.03;;;1.35;;
71707;SDS011;59556;37.994;-122.332;2022-07-29T03:22:40;2.28;;;1.23;;
71707;SDS011;59556;37.994;-122.332;2022-07-29T03:25:15;2.83;;;1.33;;
71707;SDS011;59556;37.994;-122.332;2022-07-29T03:27:43;4.75;;;1.67;;
71707;SDS011;59556;37.994;-122.332;2022-07-29T03:30:10;5.57;;;1.58;;
71707;SDS011;59556;37.994;-122.332;2022-07-29T03:32:37;4.20;;;1.48;;
71707;SDS011;59556;37.994;-122.332;2022-07-29T03:35:04;3.47;;;1.42;;
71707;SDS011;59556;37.994;-122.332;2022-07-29T03:37:31;4.90;;;1.85;;
71707;SDS011;59556;37.994;-122.332;2022-07-29T03:39:59;2.92;;;1.40;;
71707;SDS011;59556;37.994;-122.332;2022-07-29T03:42:27;3.40;;;1.63;;
71707;SDS011;59556;37.994;-122.332;2022-07-29T03:44:56;4.80;;;1.67;;
71707;SDS011;59556;37.994;-122.332;2022-07-29T03:47:24;3.25;;;1.40;;
71707;SDS011;59556;37.994;-122.332;2022-07-29T03:49:52;3.75;;;1.40;;
71707;SDS011;59556;37.994;-122.332;2022-07-29T03:52:21;6.07;;;1.90;;
71707;SDS011;59556;37.994;-122.332;2022-07-29T03:54:48;21.30;;;2.35;;
71707;SDS011;59556;37.994;-122.332;2022-07-29T03:57:14;9.85;;;1.90;;
71707;SDS011;59556;37.994;-122.332;2022-07-29T03:59:41;26.92;;;2.42;;
71707;SDS011;59556;37.994;-122.332;2022-07-29T04:02:09;14.55;;;2.72;;
71707;SDS011;59556;37.994;-122.332;2022-07-29T04:04:37;14.02;;;3.00;;
71707;SDS011;59556;37.994;-122.332;2022-07-29T04:07:03;18.98;;;3.30;;
71707;SDS011;59556;37.994;-122.332;2022-07-29T04:09:30;30.05;;;3.33;;
71707;SDS011;59556;37.994;-122.332;2022-07-29T04:11:56;19.08;;;2.95;;
71707;SDS011;59556;37.994;-122.332;2022-07-29T04:14:22;17.27;;;2.33;;
71707;SDS011;59556;37.994;-122.332;2022-07-29T04:16:48;16.48;;;2.75;;
71707;SDS011;59556;37.994;-122.332;2022-07-29T04:19:15;16.80;;;2.53;;
71707;SDS011;59556;37.994;-122.332;2022-07-29T04:21:41;15.73;;;2.40;;
71707;SDS011;59556;37.994;-122.332;2022-07-29T04:24:10;22.83;;;3.20;;
71707;SDS011;59556;37.994;-122.332;2022-07-29T04:26:37;19.80;;;2.47;;
71707;SDS011;59556;37.994;-122.332;2022-07-29T04:29:03;13.00;;;1.80;;
71707;SDS011;59556;37.994;-122.332;2022-07-29T04:31:29;13.13;;;2.55;;
71707;SDS011;59556;37.994;-122.332;2022-07-29T04:33:55;7.28;;;2.13;;
71707;SDS011;59556;37.994;-122.332;2022-07-29T04:36:21;18.50;;;2.53;;
71707;SDS011;59556;37.994;-122.332;2022-07-29T04:38:48;9.18;;;1.45;;
71707;SDS011;59556;37.994;-122.332;2022-07-29T04:41:14;10.35;;;1.83;;
71707;SDS011;59556;37.994;-122.332;2022-07-29T04:43:40;7.07;;;1.75;;
71707;SDS011;59556;37.994;-122.332;2022-07-29T04:46:06;10.60;;;1.63;;
71707;SDS011;59556;37.994;-122.332;2022-07-29T04:48:33;9.85;;;1.92;;
71707;SDS011;59556;37.994;-122.332;2022-07-29T04:50:59;8.70;;;1.30;;
71707;SDS011;59556;37.994;-122.332;2022-07-29T04:53:25;8.02;;;1.90;;
71707;SDS011;59556;37.994;-122.332;2022-07-29T04:55:52;6.40;;;1.48;;
71707;SDS011;59556;37.994;-122.332;2022-07-29T04:58:18;8.15;;;1.73;;
71707;SDS011;59556;37.994;-122.332;2022-07-29T05:00:44;6.82;;;1.63;;
71707;SDS011;59556;37.994;-122.332;2022-07-29T05:03:10;8.40;;;2.13;;
71707;SDS011;59556;37.994;-122.332;2022-07-29T05:05:37;7.85;;;1.58;;
71707;SDS011;59556;37.994;-122.332;2022-07-29T05:08:03;5.28;;;2.20;;
71707;SDS011;59556;37.994;-122.332;2022-07-29T05:10:29;6.25;;;2.08;;
71707;SDS011;59556;37.994;-122.332;2022-07-29T05:12:56;7.10;;;1.88;;
71707;SDS011;59556;37.994;-122.332;2022-07-29T05:15:22;4.43;;;1.45;;
71707;SDS011;59556;37.994;-122.332;2022-07-29T05:17:48;3.25;;;1.23;;
71707;SDS011;59556;37.994;-122.332;2022-07-29T05:20:14;4.00;;;1.45;;
71707;SDS011;59556;37.994;-122.332;2022-07-29T05:22:40;5.93;;;1.73;;
71707;SDS011;59556;37.994;-122.332;2022-07-29T05:25:07;8.68;;;1.80;;
71707;SDS011;59556;37.994;-122.332;2022-07-29T05:27:35;4.45;;;1.40;;
71707;SDS011;59556;37.994;-122.332;2022-07-29T05:30:02;3.65;;;1.15;;
71707;SDS011;59556;37.994;-122.332;2022-07-29T05:32:29;4.78;;;1.42;;
71707;SDS011;59556;37.994;-122.332;2022-07-29T05:34:55;4.40;;;1.65;;
71707;SDS011;59556;37.994;-122.332;2022-07-29T05:37:21;5.47;;;1.00;;
71707;SDS011;59556;37.994;-122.332;2022-07-29T05:39:48;4.07;;;1.42;;
71707;SDS011;59556;37.994;-122.332;2022-07-29T05:42:14;7.97;;;2.05;;
71707;SDS011;59556;37.994;-122.332;2022-07-29T05:44:40;6.15;;;1.48;;
71707;SDS011;59556;37.994;-122.332;2022-07-29T05:47:06;9.57;;;1.20;;
71707;SDS011;59556;37.994;-122.332;2022-07-29T05:49:33;7.05;;;1.80;;
71707;SDS011;59556;37.994;-122.332;2022-07-29T05:51:59;2.90;;;1.48;;
71707;SDS011;59556;37.994;-122.332;2022-07-29T05:54:25;4.18;;;1.27;;
71707;SDS011;59556;37.994;-122.332;2022-07-29T05:56:51;4.45;;;1.70;;
71707;SDS011;59556;37.994;-122.332;2022-07-29T05:59:17;4.93;;;1.15;;
71707;SDS011;59556;37.994;-122.332;2022-07-29T06:01:44;2.50;;;1.00;;
71707;SDS011;59556;37.994;-122.332;2022-07-29T06:04:10;2.15;;;1.00;;
71707;SDS011;59556;37.994;-122.332;2022-07-29T06:06:36;7.32;;;1.60;;
71707;SDS011;59556;37.994;-122.332;2022-07-29T06:09:03;8.48;;;1.60;;
71707;SDS011;59556;37.994;-122.332;2022-07-29T06:11:29;5.88;;;1.58;;
71707;SDS011;59556;37.994;-122.332;2022-07-29T06:13:55;7.30;;;1.40;;
71707;SDS011;59556;37.994;-122.332;2022-07-29T06:16:22;9.25;;;1.85;;
71707;SDS011;59556;37.994;-122.332;2022-07-29T06:18:48;5.85;;;1.48;;
71707;SDS011;59556;37.994;-122.332;2022-07-29T06:21:15;5.30;;;1.48;;
71707;SDS011;59556;37.994;-122.332;2022-07-29T06:23:42;3.72;;;1.00;;
71707;SDS011;59556;37.994;-122.332;2022-07-29T06:26:10;7.35;;;1.42;;
71707;SDS011;59556;37.994;-122.332;2022-07-29T06:28:36;4.38;;;1.10;;
71707;SDS011;59556;37.994;-122.332;2022-07-29T06:31:03;7.75;;;1.65;;
71707;SDS011;59556;37.994;-122.332;2022-07-29T06:33:29;3.10;;;1.23;;
71707;SDS011;59556;37.994;-122.332;2022-07-29T06:35:55;4.38;;;1.13;;
71707;SDS011;59556;37.994;-122.332;2022-07-29T06:38:21;9.25;;;1.42;;
71707;SDS011;59556;37.994;-122.332;2022-07-29T06:40:47;3.55;;;1.48;;
71707;SDS011;59556;37.994;-122.332;2022-07-29T06:43:27;8.15;;;2.15;;
71707;SDS011;59556;37.994;-122.332;2022-07-29T06:45:57;3.92;;;1.33;;
71707;SDS011;59556;37.994;-122.332;2022-07-29T06:48:24;5.93;;;1.35;;
71707;SDS011;59556;37.994;-122.332;2022-07-29T06:50:50;10.15;;;1.70;;
71707;SDS011;59556;37.994;-122.332;2022-07-29T06:53:17;4.38;;;1.45;;
71707;SDS011;59556;37.994;-122.332;2022-07-29T06:55:43;7.80;;;1.38;;
71707;SDS011;59556;37.994;-122.332;2022-07-29T06:58:09;9.52;;;1.42;;
71707;SDS011;59556;37.994;-122.332;2022-07-29T07:00:36;3.47;;;1.17;;
71707;SDS011;59556;37.994;-122.332;2022-07-29T07:03:03;3.95;;;1.55;;
71707;SDS011;59556;37.994;-122.332;2022-07-29T07:05:29;3.25;;;1.20;;
71707;SDS011;59556;37.994;-122.332;2022-07-29T07:07:55;5.38;;;1.20;;
71707;SDS011;59556;37.994;-122.332;2022-07-29T07:10:21;7.57;;;1.60;;
71707;SDS011;59556;37.994;-122.332;2022-07-29T07:12:47;4.10;;;1.08;;
71707;SDS011;59556;37.994;-122.332;2022-07-29T07:15:14;7.22;;;1.90;;
71707;SDS011;59556;37.994;-122.332;2022-07-29T07:17:40;11.18;;;1.83;;
71707;SDS011;59556;37.994;-122.332;2022-07-29T07:20:06;2.78;;;1.02;;
71707;SDS011;59556;37.994;-122.332;2022-07-29T07:22:33;5.25;;;1.15;;
71707;SDS011;59556;37.994;-122.332;2022-07-29T07:24:59;4.80;;;1.08;;
71707;SDS011;59556;37.994;-122.332;2022-07-29T07:27:27;4.65;;;0.90;;
71707;SDS011;59556;37.994;-122.332;2022-07-29T07:29:53;3.53;;;0.90;;
71707;SDS011;59556;37.994;-122.332;2022-07-29T07:32:19;3.35;;;0.90;;
71707;SDS011;59556;37.994;-122.332;2022-07-29T07:34:45;3.08;;;1.38;;
71707;SDS011;59556;37.994;-122.332;2022-07-29T07:37:12;7.60;;;1.10;;
71707;SDS011;59556;37.994;-122.332;2022-07-29T07:39:40;4.70;;;1.20;;
71707;SDS011;59556;37.994;-122.332;2022-07-29T07:42:06;6.57;;;1.40;;
71707;SDS011;59556;37.994;-122.332;2022-07-29T07:44:33;5.28;;;1.40;;
71707;SDS011;59556;37.994;-122.332;2022-07-29T07:46:59;4.75;;;1.30;;
71707;SDS011;59556;37.994;-122.332;2022-07-29T07:49:25;4.82;;;1.10;;
71707;SDS011;59556;37.994;-122.332;2022-07-29T07:51:51;3.42;;;0.90;;
71707;SDS011;59556;37.994;-122.332;2022-07-29T07:54:17;6.82;;;1.63;;
71707;SDS011;59556;37.994;-122.332;2022-07-29T07:56:43;9.73;;;1.33;;
71707;SDS011;59556;37.994;-122.332;2022-07-29T07:59:10;2.83;;;1.17;;
71707;SDS011;59556;37.994;-122.332;2022-07-29T08:01:36;7.95;;;1.52;;
71707;SDS011;59556;37.994;-122.332;2022-07-29T08:04:02;4.30;;;1.42;;
71707;SDS011;59556;37.994;-122.332;2022-07-29T08:06:28;4.93;;;1.10;;
71707;SDS011;59556;37.994;-122.332;2022-07-29T08:08:55;6.05;;;1.38;;
71707;SDS011;59556;37.994;-122.332;2022-07-29T08:11:21;4.22;;;1.27;;
71707;SDS011;59556;37.994;-122.332;2022-07-29T08:13:47;4.72;;;1.23;;
71707;SDS011;59556;37.994;-122.332;2022-07-29T08:16:13;5.45;;;1.25;;
71707;SDS011;59556;37.994;-122.332;2022-07-29T08:18:40;5.25;;;1.20;;
71707;SDS011;59556;37.994;-122.332;2022-07-29T08:21:07;11.90;;;1.67;;
71707;SDS011;59556;37.994;-122.332;2022-07-29T08:23:33;3.95;;;1.50;;
71707;SDS011;59556;37.994;-122.332;2022-07-29T08:26:11;5.53;;;1.02;;
71707;SDS011;59556;37.994;-122.332;2022-07-29T08:28:42;8.23;;;1.80;;
71707;SDS011;59556;37.994;-122.332;2022-07-29T08:31:13;6.53;;;1.10;;
71707;SDS011;59556;37.994;-122.332;2022-07-29T08:33:40;10.55;;;0.93;;
71707;SDS011;59556;37.994;-122.332;2022-07-29T08:36:06;6.78;;;1.08;;
71707;SDS011;59556;37.994;-122.332;2022-07-29T08:38:33;5.50;;;1.27;;
71707;SDS011;59556;37.994;-122.332;2022-07-29T08:41:02;3.08;;;1.00;;
71707;SDS011;59556;37.994;-122.332;2022-07-29T08:43:32;6.47;;;1.40;;
71707;SDS011;59556;37.994;-122.332;2022-07-29T08:46:02;8.00;;;1.23;;
71707;SDS011;59556;37.994;-122.332;2022-07-29T08:48:28;4.78;;;1.00;;
71707;SDS011;59556;37.994;-122.332;2022-07-29T08:50:55;6.07;;;1.27;;
71707;SDS011;59556;37.994;-122.332;2022-07-29T08:53:22;5.88;;;1.35;;
71707;SDS011;59556;37.994;-122.332;2022-07-29T08:55:51;6.95;;;1.25;;
71707;SDS011;59556;37.994;-122.332;2022-07-29T08:58:19;2.50;;;1.08;;
71707;SDS011;59556;37.994;-122.332;2022-07-29T09:00:51;4.70;;;0.93;;
71707;SDS011;59556;37.994;-122.332;2022-07-29T09:03:19;5.05;;;1.02;;
71707;SDS011;59556;37.994;-122.332;2022-07-29T09:05:46;3.72;;;1.20;;
71707;SDS011;59556;37.994;-122.332;2022-07-29T09:08:13;4.72;;;1.40;;
71707;SDS011;59556;37.994;-122.332;2022-07-29T09:10:40;3.65;;;0.93;;
71707;SDS011;59556;37.994;-122.332;2022-07-29T09:13:07;4.03;;;1.15;;
71707;SDS011;59556;37.994;-122.332;2022-07-29T09:15:33;3.22;;;0.93;;
71707;SDS011;59556;37.994;-122.332;2022-07-29T09:17:59;2.25;;;0.70;;
71707;SDS011;59556;37.994;-122.332;2022-07-29T09:20:27;4.63;;;1.00;;
71707;SDS011;59556;37.994;-122.332;2022-07-29T09:23:12;2.58;;;0.60;;
71707;SDS011;59556;37.994;-122.332;2022-07-29T09:25:41;5.22;;;1.02;;
71707;SDS011;59556;37.994;-122.332;2022-07-29T09:28:13;4.22;;;0.63;;
71707;SDS011;59556;37.994;-122.332;2022-07-29T09:33:17;1.88;;;0.82;;
71707;SDS011;59556;37.994;-122.332;2022-07-29T09:35:44;1.27;;;0.70;;
71707;SDS011;59556;37.994;-122.332;2022-07-29T09:38:11;3.53;;;0.95;;
71707;SDS011;59556;37.994;-122.332;2022-07-29T09:40:38;1.58;;;0.90;;
71707;SDS011;59556;37.994;-122.332;2022-07-29T09:43:11;2.72;;;0.77;;
71707;SDS011;59556;37.994;-122.332;2022-07-29T09:45:38;2.33;;;0.80;;
71707;SDS011;59556;37.994;-122.332;2022-07-29T09:48:15;2.70;;;0.90;;
71707;SDS011;59556;37.994;-122.332;2022-07-29T09:50:43;2.63;;;0.80;;
71707;SDS011;59556;37.994;-122.332;2022-07-29T09:53:10;5.07;;;1.40;;
71707;SDS011;59556;37.994;-122.332;2022-07-29T09:55:49;1.80;;;0.90;;
71707;SDS011;59556;37.994;-122.332;2022-07-29T09:58:19;2.05;;;0.57;;
71707;SDS011;59556;37.994;-122.332;2022-07-29T10:00:48;1.58;;;0.70;;
71707;SDS011;59556;37.994;-122.332;2022-07-29T10:03:15;2.08;;;0.52;;
71707;SDS011;59556;37.994;-122.332;2022-07-29T10:05:43;1.60;;;0.57;;
71707;SDS011;59556;37.994;-122.332;2022-07-29T10:08:10;1.60;;;0.75;;
71707;SDS011;59556;37.994;-122.332;2022-07-29T10:10:38;4.63;;;0.73;;
71707;SDS011;59556;37.994;-122.332;2022-07-29T10:13:09;3.63;;;1.08;;
71707;SDS011;59556;37.994;-122.332;2022-07-29T10:15:41;2.25;;;0.90;;
71707;SDS011;59556;37.994;-122.332;2022-07-29T10:18:11;3.20;;;1.00;;
71707;SDS011;59556;37.994;-122.332;2022-07-29T10:20:39;1.85;;;0.85;;
71707;SDS011;59556;37.994;-122.332;2022-07-29T10:23:05;2.55;;;0.80;;
71707;SDS011;59556;37.994;-122.332;2022-07-29T10:25:31;2.72;;;0.63;;
71707;SDS011;59556;37.994;-122.332;2022-07-29T10:27:58;2.20;;;0.95;;
71707;SDS011;59556;37.994;-122.332;2022-07-29T10:30:24;1.50;;;0.60;;
71707;SDS011;59556;37.994;-122.332;2022-07-29T10:32:54;1.52;;;0.98;;
71707;SDS011;59556;37.994;-122.332;2022-07-29T10:35:46;2.83;;;0.60;;
71707;SDS011;59556;37.994;-122.332;2022-07-29T10:44:03;1.10;;;0.50;;
71707;SDS011;59556;37.994;-122.332;2022-07-29T10:46:34;1.92;;;0.93;;
71707;SDS011;59556;37.994;-122.332;2022-07-29T10:54:48;1.80;;;0.40;;
71707;SDS011;59556;37.994;-122.332;2022-07-29T11:05:13;1.38;;;0.70;;
71707;SDS011;59556;37.994;-122.332;2022-07-29T11:10:39;2.03;;;0.88;;
71707;SDS011;59556;37.994;-122.332;2022-07-29T11:13:05;2.33;;;0.65;;
71707;SDS011;59556;37.994;-122.332;2022-07-29T11:18:27;1.95;;;0.70;;
71707;SDS011;59556;37.994;-122.332;2022-07-29T11:20:53;1.23;;;0.40;;
71707;SDS011;59556;37.994;-122.332;2022-07-29T11:23:23;1.48;;;0.63;;
71707;SDS011;59556;37.994;-122.332;2022-07-29T11:29:02;1.13;;;0.40;;
71707;SDS011;59556;37.994;-122.332;2022-07-29T11:31:41;0.88;;;0.65;;
71707;SDS011;59556;37.994;-122.332;2022-07-29T11:34:16;1.20;;;0.60;;
71707;SDS011;59556;37.994;-122.332;2022-07-29T11:39:30;0.60;;;0.40;;
71707;SDS011;59556;37.994;-122.332;2022-07-29T11:44:54;2.67;;;0.70;;
71707;SDS011;59556;37.994;-122.332;2022-07-29T11:47:26;1.00;;;0.43;;
71707;SDS011;59556;37.994;-122.332;2022-07-29T11:49:54;1.80;;;0.60;;
71707;SDS011;59556;37.994;-122.332;2022-07-29T11:52:32;0.30;;;0.30;;
71707;SDS011;59556;37.994;-122.332;2022-07-29T11:55:18;1.23;;;0.55;;
71707;SDS011;59556;37.994;-122.332;2022-07-29T11:57:48;4.00;;;0.95;;
71707;SDS011;59556;37.994;-122.332;2022-07-29T12:00:22;1.48;;;0.47;;
71707;SDS011;59556;37.994;-122.332;2022-07-29T12:02:53;1.35;;;0.43;;
71707;SDS011;59556;37.994;-122.332;2022-07-29T12:05:19;1.73;;;0.40;;
71707;SDS011;59556;37.994;-122.332;2022-07-29T12:07:46;0.73;;;0.40;;
71707;SDS011;59556;37.994;-122.332;2022-07-29T12:10:13;1.60;;;0.30;;
71707;SDS011;59556;37.994;-122.332;2022-07-29T12:12:40;0.73;;;0.73;;
71707;SDS011;59556;37.994;-122.332;2022-07-29T12:15:12;1.77;;;0.90;;
71707;SDS011;59556;37.994;-122.332;2022-07-29T12:17:40;1.52;;;0.60;;
71707;SDS011;59556;37.994;-122.332;2022-07-29T12:20:07;1.50;;;0.50;;
71707;SDS011;59556;37.994;-122.332;2022-07-29T12:22:37;1.80;;;0.50;;
71707;SDS011;59556;37.994;-122.332;2022-07-29T12:25:10;1.48;;;0.38;;
71707;SDS011;59556;37.994;-122.332;2022-07-29T12:27:40;1.23;;;0.70;;
71707;SDS011;59556;37.994;-122.332;2022-07-29T12:30:12;1.10;;;0.47;;
71707;SDS011;59556;37.994;-122.332;2022-07-29T12:32:44;1.05;;;0.47;;
71707;SDS011;59556;37.994;-122.332;2022-07-29T12:35:14;1.05;;;0.47;;
71707;SDS011;59556;37.994;-122.332;2022-07-29T12:37:42;1.33;;;0.40;;
71707;SDS011;59556;37.994;-122.332;2022-07-29T12:40:10;3.50;;;0.60;;
71707;SDS011;59556;37.994;-122.332;2022-07-29T12:42:38;0.75;;;0.50;;
71707;SDS011;59556;37.994;-122.332;2022-07-29T12:45:05;2.22;;;0.52;;
71707;SDS011;59556;37.994;-122.332;2022-07-29T12:47:32;1.50;;;0.30;;
71707;SDS011;59556;37.994;-122.332;2022-07-29T12:50:11;2.25;;;0.60;;
71707;SDS011;59556;37.994;-122.332;2022-07-29T12:52:43;1.10;;;0.40;;
71707;SDS011;59556;37.994;-122.332;2022-07-29T12:55:10;2.47;;;0.40;;
71707;SDS011;59556;37.994;-122.332;2022-07-29T12:57:49;0.90;;;0.40;;
71707;SDS011;59556;37.994;-122.332;2022-07-29T13:00:21;0.60;;;0.57;;
71707;SDS011;59556;37.994;-122.332;2022-07-29T13:02:54;2.60;;;0.65;;
71707;SDS011;59556;37.994;-122.332;2022-07-29T13:05:21;2.53;;;0.73;;
71707;SDS011;59556;37.994;-122.332;2022-07-29T13:07:47;1.95;;;0.38;;
71707;SDS011;59556;37.994;-122.332;2022-07-29T13:10:19;2.00;;;0.50;;
71707;SDS011;59556;37.994;-122.332;2022-07-29T13:15:28;1.75;;;0.60;;
71707;SDS011;59556;37.994;-122.332;2022-07-29T13:17:55;1.08;;;0.40;;
71707;SDS011;59556;37.994;-122.332;2022-07-29T13:20:23;1.85;;;0.65;;
71707;SDS011;59556;37.994;-122.332;2022-07-29T13:25:51;0.95;;;0.57;;
71707;SDS011;59556;37.994;-122.332;2022-07-29T13:28:10;0.55;;;0.22;;
71707;SDS011;59556;37.994;-122.332;2022-07-29T13:30:37;1.50;;;0.55;;
71707;SDS011;59556;37.994;-122.332;2022-07-29T13:33:07;1.17;;;0.50;;
71707;SDS011;59556;37.994;-122.332;2022-07-29T13:35:33;0.60;;;0.30;;
71707;SDS011;59556;37.994;-122.332;2022-07-29T13:37:59;0.47;;;0.40;;
71707;SDS011;59556;37.994;-122.332;2022-07-29T13:40:25;0.28;;;0.28;;
71707;SDS011;59556;37.994;-122.332;2022-07-29T13:42:52;0.80;;;0.45;;
71707;SDS011;59556;37.994;-122.332;2022-07-29T13:45:18;1.33;;;0.55;;
71707;SDS011;59556;37.994;-122.332;2022-07-29T13:47:44;1.02;;;0.43;;
71707;SDS011;59556;37.994;-122.332;2022-07-29T13:50:10;1.55;;;0.30;;
71707;SDS011;59556;37.994;-122.332;2022-07-29T13:52:36;1.40;;;0.40;;
71707;SDS011;59556;37.994;-122.332;2022-07-29T13:55:03;1.63;;;0.60;;
71707;SDS011;59556;37.994;-122.332;2022-07-29T13:57:30;0.85;;;0.20;;
71707;SDS011;59556;37.994;-122.332;2022-07-29T13:59:57;0.40;;;0.40;;
71707;SDS011;59556;37.994;-122.332;2022-07-29T14:02:23;1.27;;;0.45;;
71707;SDS011;59556;37.994;-122.332;2022-07-29T14:04:49;0.85;;;0.40;;
71707;SDS011;59556;37.994;-122.332;2022-07-29T14:07:16;0.55;;;0.30;;
71707;SDS011;59556;37.994;-122.332;2022-07-29T14:09:42;1.13;;;0.35;;
71707;SDS011;59556;37.994;-122.332;2022-07-29T14:12:08;0.50;;;0.32;;
71707;SDS011;59556;37.994;-122.332;2022-07-29T14:14:35;1.23;;;0.50;;
71707;SDS011;59556;37.994;-122.332;2022-07-29T14:17:02;0.32;;;0.32;;
71707;SDS011;59556;37.994;-122.332;2022-07-29T14:19:28;1.98;;;0.40;;
71707;SDS011;59556;37.994;-122.332;2022-07-29T14:21:54;3.03;;;0.80;;
71707;SDS011;59556;37.994;-122.332;2022-07-29T14:24:20;3.30;;;0.43;;
71707;SDS011;59556;37.994;-122.332;2022-07-29T14:26:47;1.33;;;0.55;;
71707;SDS011;59556;37.994;-122.332;2022-07-29T14:29:13;2.35;;;0.40;;
71707;SDS011;59556;37.994;-122.332;2022-07-29T14:31:39;2.35;;;0.47;;
71707;SDS011;59556;37.994;-122.332;2022-07-29T14:34:05;0.68;;;0.40;;
71707;SDS011;59556;37.994;-122.332;2022-07-29T14:36:31;1.17;;;0.40;;
71707;SDS011;59556;37.994;-122.332;2022-07-29T14:38:58;2.15;;;0.75;;
71707;SDS011;59556;37.994;-122.332;2022-07-29T14:41:24;1.33;;;0.40;;
71707;SDS011;59556;37.994;-122.332;2022-07-29T14:43:53;2.05;;;0.60;;
71707;SDS011;59556;37.994;-122.332;2022-07-29T14:46:20;2.50;;;0.50;;
71707;SDS011;59556;37.994;-122.332;2022-07-29T14:48:46;5.00;;;0.70;;
71707;SDS011;59556;37.994;-122.332;2022-07-29T14:51:12;2.95;;;0.93;;
71707;SDS011;59556;37.994;-122.332;2022-07-29T14:53:38;0.98;;;0.30;;
71707;SDS011;59556;37.994;-122.332;2022-07-29T14:56:04;4.05;;;0.60;;
71707;SDS011;59556;37.994;-122.332;2022-07-29T14:58:31;1.13;;;0.40;;
71707;SDS011;59556;37.994;-122.332;2022-07-29T15:00:57;3.00;;;0.52;;
71707;SDS011;59556;37.994;-122.332;2022-07-29T15:03:23;0.75;;;0.32;;
71707;SDS011;59556;37.994;-122.332;2022-07-29T15:05:49;2.40;;;0.35;;
71707;SDS011;59556;37.994;-122.332;2022-07-29T15:08:16;1.15;;;0.40;;